createdAt,value
2023-05-22T00:01:25.826Z,17.47
2023-05-22T00:03:53.493Z,17.10
2023-05-22T00:06:20.692Z,16.90
2023-05-22T00:08:47.399Z,16.88
2023-05-22T00:11:14.314Z,16.79
2023-05-22T00:13:41.096Z,16.72
2023-05-22T00:16:07.909Z,17.02
2023-05-22T00:18:34.581Z,17.05
2023-05-22T00:21:01.220Z,17.10
2023-05-22T00:23:30.025Z,17.24
2023-05-22T00:25:56.815Z,17.54
2023-05-22T00:28:23.459Z,17.60
2023-05-22T00:30:50.109Z,17.33
2023-05-22T00:33:19.531Z,17.28
2023-05-22T00:35:46.213Z,17.28
2023-05-22T00:38:29.696Z,17.13
2023-05-22T00:40:56.778Z,16.95
2023-05-22T00:43:23.524Z,16.80
2023-05-22T00:45:50.346Z,16.87
2023-05-22T00:48:17.119Z,17.25
2023-05-22T00:50:44.200Z,17.49
2023-05-22T00:53:11.483Z,17.65
2023-05-22T00:55:38.740Z,17.71
2023-05-22T00:58:07.494Z,17.54
2023-05-22T01:00:38.639Z,17.43
2023-05-22T01:03:05.867Z,17.46
2023-05-22T01:05:32.591Z,17.56
2023-05-22T01:07:59.281Z,17.30
2023-05-22T01:10:28.087Z,17.12
2023-05-22T01:13:16.002Z,17.30
2023-05-22T01:16:03.920Z,17.20
2023-05-22T01:18:49.019Z,16.82
2023-05-22T01:21:15.695Z,16.54
2023-05-22T01:24:12.154Z,16.14
2023-05-22T01:26:56.036Z,15.86
2023-05-22T01:29:42.349Z,15.78
2023-05-22T01:32:17.083Z,15.95
2023-05-22T01:34:47.081Z,15.99
2023-05-22T01:37:14.938Z,16.28
2023-05-22T01:39:43.516Z,16.34
2023-05-22T01:42:10.296Z,16.39
2023-05-22T01:44:37.055Z,16.41
2023-05-22T01:47:03.831Z,16.36
2023-05-22T01:49:32.491Z,16.59
2023-05-22T01:52:08.346Z,16.44
2023-05-22T01:55:20.353Z,16.00
2023-05-22T01:57:59.440Z,16.04
2023-05-22T02:00:28.181Z,16.19
2023-05-22T02:03:05.677Z,16.16
2023-05-22T02:05:34.348Z,15.82
2023-05-22T02:08:03.798Z,15.90
2023-05-22T02:10:34.085Z,15.78
2023-05-22T02:13:00.913Z,15.62
2023-05-22T02:15:27.787Z,15.69
2023-05-22T02:17:54.508Z,15.46
2023-05-22T02:20:21.435Z,15.44
2023-05-22T02:22:48.182Z,15.59
2023-05-22T02:25:16.440Z,15.60
2023-05-22T02:27:45.150Z,15.86
2023-05-22T02:30:13.567Z,15.78
2023-05-22T02:32:41.324Z,15.87
2023-05-22T02:35:08.541Z,16.00
2023-05-22T02:37:35.407Z,16.01
2023-05-22T02:40:02.399Z,15.63
2023-05-22T02:42:29.067Z,15.37
2023-05-22T02:44:55.896Z,15.25
2023-05-22T02:47:22.593Z,15.20
2023-05-22T02:49:49.396Z,15.00
2023-05-22T02:52:17.914Z,15.20
2023-05-22T02:54:45.008Z,15.25
2023-05-22T02:57:11.812Z,15.23
2023-05-22T02:59:38.477Z,15.39
2023-05-22T03:02:05.994Z,15.32
2023-05-22T03:04:32.942Z,15.32
2023-05-22T03:06:59.948Z,15.58
2023-05-22T03:09:26.627Z,15.35
2023-05-22T03:11:53.353Z,15.45
2023-05-22T03:14:20.113Z,15.54
2023-05-22T03:16:46.858Z,15.54
2023-05-22T03:19:15.952Z,15.46
2023-05-22T03:21:43.499Z,15.59
2023-05-22T03:24:10.537Z,15.55
2023-05-22T03:26:37.261Z,15.52
2023-05-22T03:29:04.409Z,15.62
2023-05-22T03:31:33.052Z,15.61
2023-05-22T03:34:00.430Z,15.51
2023-05-22T03:36:27.415Z,15.38
2023-05-22T03:38:56.831Z,15.34
2023-05-22T03:41:23.557Z,15.42
2023-05-22T03:43:52.328Z,15.51
2023-05-22T03:46:19.587Z,15.58
2023-05-22T03:48:46.297Z,15.59
2023-05-22T03:51:12.964Z,15.64
2023-05-22T03:53:39.625Z,15.13
2023-05-22T03:56:06.665Z,14.87
2023-05-22T03:58:33.510Z,14.71
2023-05-22T04:01:00.162Z,14.83
2023-05-22T04:03:27.911Z,14.97
2023-05-22T04:05:54.765Z,14.89
2023-05-22T04:08:24.358Z,14.90
2023-05-22T04:10:51.065Z,15.25
2023-05-22T04:13:17.968Z,15.50
2023-05-22T04:15:44.694Z,15.56
2023-05-22T04:18:11.821Z,15.20
2023-05-22T04:20:38.821Z,15.35
2023-05-22T04:23:05.657Z,15.30
2023-05-22T04:25:32.571Z,15.55
2023-05-22T04:28:00.195Z,15.40
2023-05-22T04:30:26.857Z,15.46
2023-05-22T04:32:53.758Z,15.32
2023-05-22T04:35:20.449Z,15.41
2023-05-22T04:37:47.106Z,15.68
2023-05-22T04:40:14.140Z,15.52
2023-05-22T04:42:41.465Z,15.52
2023-05-22T04:45:09.272Z,15.73
2023-05-22T04:47:35.931Z,15.41
2023-05-22T04:50:02.686Z,15.22
2023-05-22T04:52:29.642Z,15.04
2023-05-22T04:54:57.035Z,15.12
2023-05-22T04:57:24.573Z,15.28
2023-05-22T04:59:51.683Z,15.43
2023-05-22T05:02:18.425Z,15.82
2023-05-22T05:04:45.109Z,16.21
2023-05-22T05:07:11.786Z,16.37
2023-05-22T05:09:38.590Z,16.33
2023-05-22T05:12:05.524Z,16.51
2023-05-22T05:14:32.210Z,16.62
2023-05-22T05:16:58.927Z,16.84
2023-05-22T05:19:25.767Z,16.95
2023-05-22T05:21:52.452Z,16.83
2023-05-22T05:24:19.197Z,17.02
2023-05-22T05:26:46.099Z,17.11
2023-05-22T05:29:13.254Z,17.18
2023-05-22T05:31:40.049Z,17.12
2023-05-22T05:34:07.013Z,17.29
2023-05-22T05:36:33.743Z,17.41
2023-05-22T05:39:00.391Z,17.54
2023-05-22T05:41:27.206Z,17.57
2023-05-22T05:43:54.036Z,17.60
2023-05-22T05:46:20.976Z,17.70
2023-05-22T05:48:47.750Z,17.76
2023-05-22T05:51:14.562Z,17.79
2023-05-22T05:53:41.479Z,18.05
2023-05-22T05:56:08.851Z,18.12
2023-05-22T05:58:35.531Z,18.22
2023-05-22T06:01:02.680Z,18.10
2023-05-22T06:03:29.464Z,17.96
2023-05-22T06:05:57.412Z,17.71
2023-05-22T06:08:24.536Z,17.73
2023-05-22T06:10:51.444Z,17.83
2023-05-22T06:13:18.089Z,18.01
2023-05-22T06:15:45.110Z,18.52
2023-05-22T06:18:12.016Z,18.77
2023-05-22T06:20:39.059Z,19.73
2023-05-22T06:23:05.906Z,21.08
2023-05-22T06:25:32.859Z,22.32
2023-05-22T06:27:59.495Z,22.99
2023-05-22T06:30:38.829Z,23.73
2023-05-22T06:33:08.268Z,23.18
2023-05-22T06:35:42.268Z,23.99
2023-05-22T06:38:09.569Z,24.52
2023-05-22T06:40:36.915Z,24.54
2023-05-22T06:43:03.620Z,23.71
2023-05-22T06:45:30.437Z,23.67
2023-05-22T06:47:57.183Z,23.89
2023-05-22T06:50:24.006Z,24.19
2023-05-22T06:52:50.762Z,24.91
2023-05-22T06:55:17.887Z,25.02
2023-05-22T06:57:44.930Z,25.17
2023-05-22T07:00:14.922Z,25.60
2023-05-22T07:02:41.797Z,26.42
2023-05-22T07:05:08.679Z,26.24
2023-05-22T07:07:35.317Z,25.57
2023-05-22T07:10:02.128Z,24.92
2023-05-22T07:12:29.413Z,25.69
2023-05-22T07:14:56.203Z,26.00
2023-05-22T07:17:22.987Z,26.02
2023-05-22T07:19:49.664Z,26.08
2023-05-22T07:22:16.929Z,25.32
2023-05-22T07:24:43.939Z,26.07
2023-05-22T07:27:10.722Z,26.50
2023-05-22T07:29:37.457Z,26.52
2023-05-22T07:32:04.383Z,26.59
2023-05-22T07:34:31.168Z,26.94
2023-05-22T07:36:58.080Z,27.50
2023-05-22T07:39:24.805Z,27.30
2023-05-22T07:41:51.821Z,27.25
2023-05-22T07:44:19.845Z,26.87
2023-05-22T07:46:46.804Z,27.84
2023-05-22T07:49:13.680Z,28.08
2023-05-22T07:51:40.517Z,28.45
2023-05-22T07:54:07.158Z,28.22
2023-05-22T07:56:33.846Z,27.38
2023-05-22T07:59:03.119Z,26.41
2023-05-22T08:01:29.850Z,27.39
2023-05-22T08:03:58.929Z,27.74
2023-05-22T08:06:25.669Z,28.20
2023-05-22T08:08:52.367Z,27.67
2023-05-22T08:11:19.156Z,28.26
2023-05-22T08:13:45.890Z,28.09
2023-05-22T08:16:12.951Z,28.22
2023-05-22T08:18:40.215Z,28.40
2023-05-22T08:21:06.975Z,28.30
2023-05-22T08:23:33.829Z,27.81
2023-05-22T08:26:00.715Z,27.52
2023-05-22T08:28:29.079Z,27.80
2023-05-22T08:30:55.840Z,28.05
2023-05-22T08:33:22.564Z,26.40
2023-05-22T08:35:49.400Z,27.15
2023-05-22T08:38:16.169Z,26.97
2023-05-22T08:40:48.587Z,27.97
2023-05-22T08:43:15.830Z,28.21
2023-05-22T08:45:42.713Z,28.23
2023-05-22T08:48:13.046Z,28.00
2023-05-22T08:50:42.887Z,27.64
2023-05-22T08:53:12.446Z,27.81
2023-05-22T08:55:39.955Z,28.07
2023-05-22T08:58:08.878Z,27.60
2023-05-22T09:00:35.997Z,27.10
2023-05-22T09:03:05.062Z,26.04
2023-05-22T09:05:31.878Z,26.81
2023-05-22T09:08:12.061Z,26.94
2023-05-22T09:10:43.935Z,27.45
2023-05-22T09:13:10.862Z,27.84
2023-05-22T09:15:38.263Z,27.83
2023-05-22T09:18:06.389Z,27.40
2023-05-22T09:20:39.002Z,27.11
2023-05-22T09:23:15.951Z,26.91
2023-05-22T09:25:43.558Z,27.06
2023-05-22T09:28:13.866Z,26.86
2023-05-22T09:30:43.557Z,26.06
2023-05-22T09:33:13.812Z,26.24
2023-05-22T09:35:40.676Z,25.67
2023-05-22T09:38:09.685Z,25.11
2023-05-22T09:40:42.177Z,24.64
2023-05-22T09:43:12.565Z,24.08
2023-05-22T09:45:39.629Z,23.55
2023-05-22T09:48:08.881Z,23.65
2023-05-22T09:50:38.538Z,23.58
2023-05-22T09:53:06.503Z,23.32
2023-05-22T09:55:34.205Z,23.20
2023-05-22T09:58:04.167Z,23.24
2023-05-22T10:00:34.557Z,22.42
2023-05-22T10:03:11.245Z,22.36
2023-05-22T10:05:45.658Z,22.03
2023-05-22T10:08:21.884Z,22.36
2023-05-22T10:10:51.925Z,22.62
2023-05-22T10:13:19.205Z,22.57
2023-05-22T10:15:47.932Z,22.60
2023-05-22T10:18:15.979Z,22.42
2023-05-22T10:20:44.053Z,22.56
2023-05-22T10:23:10.807Z,22.83
2023-05-22T10:25:38.301Z,22.80
2023-05-22T10:28:06.628Z,22.95
2023-05-22T10:30:58.507Z,23.22
2023-05-22T10:33:41.702Z,23.29
2023-05-22T10:36:16.499Z,23.18
2023-05-22T10:38:57.301Z,23.37
2023-05-22T10:41:25.963Z,23.43
2023-05-22T10:43:56.815Z,23.56
2023-05-22T10:46:26.309Z,23.61
2023-05-22T10:48:54.647Z,23.19
2023-05-22T10:51:23.167Z,23.27
2023-05-22T10:53:58.216Z,23.21
2023-05-22T10:56:33.366Z,22.92
2023-05-22T10:59:01.973Z,22.98
2023-05-22T11:01:28.746Z,23.05
2023-05-22T11:04:02.175Z,23.19
2023-05-22T11:06:39.012Z,22.72
2023-05-22T11:09:17.894Z,22.80
2023-05-22T11:11:45.956Z,22.90
2023-05-22T11:14:16.489Z,23.15
2023-05-22T11:16:43.656Z,23.34
2023-05-22T11:19:22.558Z,23.64
2023-05-22T11:21:50.830Z,23.72
2023-05-22T11:24:18.412Z,23.52
2023-05-22T11:27:07.368Z,23.37
2023-05-22T11:29:34.470Z,22.93
2023-05-22T11:32:02.830Z,23.33
2023-05-22T11:34:29.618Z,23.63
2023-05-22T11:37:00.057Z,23.53
2023-05-22T11:39:27.576Z,23.51
2023-05-22T11:41:54.627Z,23.53
2023-05-22T11:44:21.579Z,23.76
2023-05-22T11:46:48.568Z,23.90
2023-05-22T11:49:15.482Z,24.23
2023-05-22T11:51:42.278Z,24.47
2023-05-22T11:54:08.971Z,24.31
2023-05-22T11:56:35.741Z,24.15
2023-05-22T11:59:03.002Z,24.56
2023-05-22T12:01:29.958Z,24.97
2023-05-22T12:03:56.782Z,25.13
2023-05-22T12:06:23.711Z,25.25
2023-05-22T12:08:50.515Z,25.51
2023-05-22T12:11:17.890Z,25.56
2023-05-22T12:13:50.622Z,25.53
2023-05-22T12:16:23.096Z,25.09
2023-05-22T12:18:56.870Z,25.32
2023-05-22T12:21:27.408Z,25.33
2023-05-22T12:23:55.356Z,25.05
2023-05-22T12:26:24.335Z,24.76
2023-05-22T12:28:54.459Z,25.20
2023-05-22T12:31:23.034Z,25.20
2023-05-22T12:33:53.052Z,25.15
2023-05-22T12:36:19.777Z,25.38
2023-05-22T12:38:46.691Z,25.28
2023-05-22T12:41:13.392Z,24.99
2023-05-22T12:43:40.107Z,25.23
2023-05-22T12:46:06.896Z,25.35
2023-05-22T12:48:33.665Z,25.39
2023-05-22T12:51:01.196Z,25.33
2023-05-22T12:53:27.910Z,25.47
2023-05-22T12:55:54.731Z,25.09
2023-05-22T12:58:21.713Z,25.20
2023-05-22T13:00:48.411Z,25.64
2023-05-22T13:03:15.280Z,26.07
2023-05-22T13:05:51.762Z,26.15
2023-05-22T13:08:20.932Z,26.29
2023-05-22T13:10:47.663Z,26.69
2023-05-22T13:13:14.591Z,26.62
2023-05-22T13:15:42.697Z,26.34
2023-05-22T13:18:09.576Z,26.61
2023-05-22T13:20:36.285Z,27.06
2023-05-22T13:23:02.990Z,27.06
2023-05-22T13:25:30.129Z,26.89
2023-05-22T13:27:58.614Z,26.85
2023-05-22T13:30:25.500Z,25.98
2023-05-22T13:32:52.367Z,26.18
2023-05-22T13:35:19.349Z,26.00
2023-05-22T13:37:46.433Z,26.14
2023-05-22T13:40:13.180Z,25.87
2023-05-22T13:42:39.989Z,25.90
2023-05-22T13:45:07.664Z,26.15
2023-05-22T13:47:34.365Z,26.51
2023-05-22T13:50:01.053Z,26.76
2023-05-22T13:52:28.000Z,27.12
2023-05-22T13:54:54.902Z,26.82
2023-05-22T13:57:21.592Z,26.16
2023-05-22T13:59:48.470Z,22.04
2023-05-22T14:02:15.374Z,20.19
2023-05-22T14:04:42.096Z,18.79
2023-05-22T14:07:11.758Z,18.45
2023-05-22T14:09:38.452Z,18.31
2023-05-22T14:12:05.525Z,18.24
2023-05-22T14:14:32.442Z,18.51
2023-05-22T14:16:59.176Z,18.62
2023-05-22T14:19:25.907Z,18.73
2023-05-22T14:21:52.757Z,19.16
2023-05-22T14:24:19.465Z,19.58
2023-05-22T14:26:47.398Z,20.01
2023-05-22T14:29:14.327Z,20.26
2023-05-22T14:31:51.496Z,20.59
2023-05-22T14:34:18.788Z,20.89
2023-05-22T14:36:46.610Z,21.14
2023-05-22T14:39:13.256Z,21.14
2023-05-22T14:41:39.905Z,21.29
2023-05-22T14:44:06.654Z,21.24
2023-05-22T14:46:33.473Z,21.40
2023-05-22T14:49:00.206Z,21.51
2023-05-22T14:51:26.915Z,21.60
2023-05-22T14:53:53.652Z,21.81
2023-05-22T14:56:20.365Z,21.80
2023-05-22T14:58:47.092Z,22.07
2023-05-22T15:01:13.995Z,22.17
2023-05-22T15:03:40.683Z,22.39
2023-05-22T15:06:07.458Z,22.42
2023-05-22T15:08:37.041Z,22.77
2023-05-22T15:11:03.989Z,22.76
2023-05-22T15:13:30.640Z,22.79
2023-05-22T15:15:57.330Z,22.78
2023-05-22T15:18:24.123Z,22.97
2023-05-22T15:20:51.017Z,23.19
2023-05-22T15:23:17.692Z,23.13
2023-05-22T15:25:44.351Z,23.05
2023-05-22T15:28:14.689Z,23.04
2023-05-22T15:30:41.395Z,23.17
2023-05-22T15:33:08.278Z,23.32
2023-05-22T15:35:34.966Z,23.02
2023-05-22T15:38:04.191Z,23.11
2023-05-22T15:40:31.016Z,23.11
2023-05-22T15:42:57.689Z,23.16
2023-05-22T15:45:24.396Z,23.32
2023-05-22T15:47:51.116Z,23.28
2023-05-22T15:50:20.308Z,23.32
2023-05-22T15:52:46.985Z,23.46
2023-05-22T15:55:13.721Z,23.74
2023-05-22T15:57:40.463Z,23.82
2023-05-22T16:00:07.857Z,23.95
2023-05-22T16:02:34.766Z,23.82
2023-05-22T16:05:01.496Z,23.78
2023-05-22T16:07:28.237Z,23.62
2023-05-22T16:09:54.920Z,23.47
2023-05-22T16:12:21.762Z,23.10
2023-05-22T16:14:49.474Z,22.63
2023-05-22T16:17:18.974Z,22.35
2023-05-22T16:19:47.003Z,22.10
2023-05-22T16:22:19.443Z,22.05
2023-05-22T16:24:46.238Z,21.83
2023-05-22T16:27:12.936Z,21.24
2023-05-22T16:29:39.693Z,20.27
2023-05-22T16:32:06.469Z,19.95
2023-05-22T16:34:33.321Z,19.47
2023-05-22T16:37:00.294Z,19.32
2023-05-22T16:39:27.261Z,19.24
2023-05-22T16:41:54.141Z,19.26
2023-05-22T16:44:20.826Z,19.26
2023-05-22T16:46:47.618Z,19.17
2023-05-22T16:49:14.452Z,19.16
2023-05-22T16:51:41.242Z,18.98
2023-05-22T16:54:07.957Z,18.90
2023-05-22T16:56:34.648Z,18.94
2023-05-22T16:59:01.479Z,18.51
2023-05-22T17:01:28.361Z,18.20
2023-05-22T17:03:55.193Z,18.25
2023-05-22T17:06:21.915Z,17.85
2023-05-22T17:08:48.654Z,17.76
2023-05-22T17:11:16.594Z,17.92
2023-05-22T17:13:43.266Z,17.68
2023-05-22T17:16:10.063Z,17.62
2023-05-22T17:18:36.791Z,17.68
2023-05-22T17:21:03.572Z,17.67
2023-05-22T17:23:30.316Z,17.72
2023-05-22T17:25:57.331Z,17.82
2023-05-22T17:28:24.153Z,17.95
2023-05-22T17:30:51.962Z,18.16
2023-05-22T17:33:18.840Z,18.14
2023-05-22T17:35:45.654Z,18.20
2023-05-22T17:38:12.502Z,18.26
2023-05-22T17:40:45.516Z,18.23
2023-05-22T17:43:13.032Z,18.33
2023-05-22T17:45:39.796Z,18.38
2023-05-22T17:48:11.272Z,18.53
2023-05-22T17:50:39.396Z,18.55
2023-05-22T17:53:07.664Z,18.62
2023-05-22T17:55:34.446Z,18.64
2023-05-22T17:58:01.502Z,18.69
2023-05-22T18:00:28.283Z,18.72
2023-05-22T18:02:55.043Z,18.67
2023-05-22T18:05:21.942Z,18.77
2023-05-22T18:07:48.783Z,19.14
2023-05-22T18:10:20.593Z,19.42
2023-05-22T18:12:47.368Z,19.57
2023-05-22T18:15:14.206Z,19.60
2023-05-22T18:17:43.264Z,19.51
2023-05-22T18:20:11.044Z,19.71
2023-05-22T18:22:39.440Z,19.81
2023-05-22T18:25:09.823Z,19.52
2023-05-22T18:27:36.898Z,19.08
2023-05-22T18:30:05.269Z,18.98
2023-05-22T18:32:32.489Z,18.79
2023-05-22T18:34:59.961Z,18.63
2023-05-22T18:37:30.880Z,18.60
2023-05-22T18:39:57.827Z,18.55
2023-05-22T18:42:24.761Z,18.50
2023-05-22T18:44:51.539Z,18.52
2023-05-22T18:47:18.526Z,18.55
2023-05-22T18:49:47.446Z,18.54
2023-05-22T18:52:16.189Z,18.59
2023-05-22T18:54:58.008Z,18.64
2023-05-22T18:57:28.160Z,18.57
2023-05-22T18:59:54.798Z,18.65
2023-05-22T19:02:21.526Z,18.70
2023-05-22T19:04:50.695Z,18.71
2023-05-22T19:07:20.018Z,18.50
2023-05-22T19:09:46.762Z,18.47
2023-05-22T19:12:16.806Z,18.45
2023-05-22T19:14:44.852Z,18.34
2023-05-22T19:17:12.406Z,18.30
2023-05-22T19:19:39.292Z,18.38
2023-05-22T19:22:06.045Z,18.36
2023-05-22T19:24:34.829Z,18.46
2023-05-22T19:27:01.631Z,18.64
2023-05-22T19:29:28.326Z,18.85
2023-05-22T19:31:58.140Z,18.98
2023-05-22T19:34:24.844Z,18.94
2023-05-22T19:36:51.624Z,18.97
2023-05-22T19:39:18.394Z,18.85
2023-05-22T19:41:45.082Z,18.99
2023-05-22T19:44:11.767Z,19.00
2023-05-22T19:46:38.549Z,19.01
2023-05-22T19:49:05.295Z,18.99
2023-05-22T19:51:31.976Z,18.82
2023-05-22T19:53:59.448Z,18.82
2023-05-22T19:56:26.546Z,18.89
2023-05-22T19:58:53.256Z,18.88
2023-05-22T20:01:19.936Z,18.94
2023-05-22T20:03:46.849Z,18.99
2023-05-22T20:06:13.789Z,19.06
2023-05-22T20:08:40.520Z,18.52
2023-05-22T20:11:07.727Z,18.64
2023-05-22T20:13:34.489Z,18.72
2023-05-22T20:16:01.261Z,18.26
2023-05-22T20:18:27.977Z,18.25
2023-05-22T20:20:54.721Z,18.44
2023-05-22T20:23:21.480Z,17.96
2023-05-22T20:25:48.175Z,17.86
2023-05-22T20:28:14.909Z,17.69
2023-05-22T20:30:41.594Z,17.62
2023-05-22T20:33:08.314Z,17.54
2023-05-22T20:35:35.230Z,17.51
2023-05-22T20:38:01.999Z,17.52
2023-05-22T20:40:29.986Z,17.61
2023-05-22T20:42:56.680Z,17.73
2023-05-22T20:45:23.397Z,17.77
2023-05-22T20:47:50.195Z,17.99
2023-05-22T20:50:16.880Z,18.25
2023-05-22T20:52:43.650Z,18.32
2023-05-22T20:55:11.301Z,18.17
2023-05-22T20:57:38.148Z,18.05
2023-05-22T21:00:08.082Z,18.03
2023-05-22T21:02:34.990Z,17.94
2023-05-22T21:05:01.698Z,18.00
2023-05-22T21:07:28.376Z,18.04
2023-05-22T21:09:55.143Z,18.12
2023-05-22T21:12:21.868Z,18.27
2023-05-22T21:14:48.775Z,18.34
2023-05-22T21:17:15.632Z,18.50
2023-05-22T21:19:42.408Z,18.47
2023-05-22T21:22:09.203Z,18.62
2023-05-22T21:24:35.953Z,18.51
2023-05-22T21:27:02.635Z,18.59
2023-05-22T21:29:29.327Z,18.70
2023-05-22T21:31:56.186Z,18.54
2023-05-22T21:34:22.919Z,18.59
2023-05-22T21:36:50.092Z,18.57
2023-05-22T21:39:16.818Z,18.67
2023-05-22T21:41:43.482Z,18.60
2023-05-22T21:44:10.181Z,18.66
2023-05-22T21:46:37.096Z,18.75
2023-05-22T21:49:03.798Z,18.74
2023-05-22T21:51:30.482Z,18.58
2023-05-22T21:53:57.216Z,18.63
2023-05-22T21:56:23.961Z,18.45
2023-05-22T21:58:50.730Z,18.22
2023-05-22T22:01:17.417Z,18.22
2023-05-22T22:03:44.189Z,18.16
2023-05-22T22:06:11.039Z,18.10
2023-05-22T22:08:37.688Z,18.21
2023-05-22T22:11:04.408Z,18.22
2023-05-22T22:13:31.075Z,18.10
2023-05-22T22:15:57.863Z,18.13
2023-05-22T22:18:24.588Z,18.09
2023-05-22T22:20:51.503Z,18.01
2023-05-22T22:23:18.346Z,18.05
2023-05-22T22:25:45.074Z,18.04
2023-05-22T22:28:12.727Z,17.99
2023-05-22T22:30:39.744Z,17.95
2023-05-22T22:33:06.671Z,18.22
2023-05-22T22:35:33.477Z,18.34
2023-05-22T22:38:00.479Z,18.50
2023-05-22T22:40:27.240Z,18.68
2023-05-22T22:42:53.955Z,18.70
2023-05-22T22:45:20.763Z,18.58
2023-05-22T22:47:47.490Z,18.59
2023-05-22T22:50:14.204Z,18.62
2023-05-22T22:52:46.194Z,18.61
2023-05-22T22:55:12.989Z,18.46
2023-05-22T22:57:40.074Z,18.48
2023-05-22T23:00:07.238Z,18.49
2023-05-22T23:02:34.185Z,18.29
2023-05-22T23:05:01.792Z,18.21
2023-05-22T23:07:28.550Z,18.25
2023-05-22T23:09:55.377Z,18.06
2023-05-22T23:12:22.037Z,18.09
2023-05-22T23:14:48.922Z,18.07
2023-05-22T23:17:15.799Z,17.94
2023-05-22T23:19:42.476Z,17.96
2023-05-22T23:22:09.232Z,17.84
2023-05-22T23:24:36.113Z,17.78
2023-05-22T23:27:02.797Z,17.84
2023-05-22T23:29:29.494Z,17.82
2023-05-22T23:31:56.249Z,17.90
2023-05-22T23:34:22.945Z,17.75
2023-05-22T23:36:49.623Z,17.83
2023-05-22T23:39:16.271Z,17.89
2023-05-22T23:41:42.957Z,17.92
2023-05-22T23:44:09.686Z,17.87
2023-05-22T23:46:36.406Z,17.81
2023-05-22T23:49:03.082Z,17.62
2023-05-22T23:51:30.205Z,17.40
2023-05-22T23:53:56.903Z,17.66
2023-05-22T23:56:23.571Z,17.53
2023-05-22T23:58:50.299Z,17.42
